sensor_id;sensor_type;location;lat;lon;timestamp;temperature;humidity
46217;DHT22;47258;59.424;13.482;2023-08-17T00:02:13;14.70;99.90
46217;DHT22;47258;59.424;13.482;2023-08-17T00:04:45;14.70;99.90
46217;DHT22;47258;59.424;13.482;2023-08-17T00:07:16;14.60;99.90
46217;DHT22;47258;59.424;13.482;2023-08-17T00:09:47;14.60;99.90
46217;DHT22;47258;59.424;13.482;2023-08-17T00:12:16;14.70;99.90
46217;DHT22;47258;59.424;13.482;2023-08-17T00:14:46;14.70;99.90
46217;DHT22;47258;59.424;13.482;2023-08-17T00:17:16;14.70;99.90
46217;DHT22;47258;59.424;13.482;2023-08-17T00:19:46;14.70;99.90
46217;DHT22;47258;59.424;13.482;2023-08-17T00:22:16;14.70;99.90
46217;DHT22;47258;59.424;13.482;2023-08-17T00:24:44;14.70;99.90
46217;DHT22;47258;59.424;13.482;2023-08-17T00:27:13;14.60;99.90
46217;DHT22;47258;59.424;13.482;2023-08-17T00:29:41;14.60;99.90
46217;DHT22;47258;59.424;13.482;2023-08-17T00:32:12;14.60;99.90
46217;DHT22;47258;59.424;13.482;2023-08-17T00:34:40;14.60;99.90
46217;DHT22;47258;59.424;13.482;2023-08-17T00:37:11;14.60;99.90
46217;DHT22;47258;59.424;13.482;2023-08-17T00:39:41;14.60;99.90
46217;DHT22;47258;59.424;13.482;2023-08-17T00:42:09;14.60;99.90
46217;DHT22;47258;59.424;13.482;2023-08-17T00:44:42;14.60;99.90
46217;DHT22;47258;59.424;13.482;2023-08-17T00:47:12;14.50;99.90
46217;DHT22;47258;59.424;13.482;2023-08-17T00:49:43;14.40;99.90
46217;DHT22;47258;59.424;13.482;2023-08-17T00:52:13;14.40;99.90
46217;DHT22;47258;59.424;13.482;2023-08-17T00:54:44;14.40;99.90
46217;DHT22;47258;59.424;13.482;2023-08-17T00:57:17;14.30;99.90
46217;DHT22;47258;59.424;13.482;2023-08-17T00:59:46;14.40;99.90
46217;DHT22;47258;59.424;13.482;2023-08-17T01:02:19;14.30;99.90
46217;DHT22;47258;59.424;13.482;2023-08-17T01:04:49;14.30;99.90
46217;DHT22;47258;59.424;13.482;2023-08-17T01:07:25;14.30;99.90
46217;DHT22;47258;59.424;13.482;2023-08-17T01:09:57;14.30;99.90
46217;DHT22;47258;59.424;13.482;2023-08-17T01:12:29;14.30;99.90
46217;DHT22;47258;59.424;13.482;2023-08-17T01:15:04;14.30;99.90
46217;DHT22;47258;59.424;13.482;2023-08-17T01:17:37;14.30;99.90
46217;DHT22;47258;59.424;13.482;2023-08-17T01:20:09;14.40;99.90
46217;DHT22;47258;59.424;13.482;2023-08-17T01:22:44;14.30;99.90
46217;DHT22;47258;59.424;13.482;2023-08-17T01:25:15;14.40;99.90
46217;DHT22;47258;59.424;13.482;2023-08-17T01:27:45;14.40;99.90
46217;DHT22;47258;59.424;13.482;2023-08-17T01:30:15;14.30;99.90
46217;DHT22;47258;59.424;13.482;2023-08-17T01:32:49;14.40;99.90
46217;DHT22;47258;59.424;13.482;2023-08-17T01:35:28;14.40;99.90
46217;DHT22;47258;59.424;13.482;2023-08-17T01:37:59;14.30;99.90
46217;DHT22;47258;59.424;13.482;2023-08-17T01:40:34;14.40;99.90
46217;DHT22;47258;59.424;13.482;2023-08-17T01:43:03;14.40;99.90
46217;DHT22;47258;59.424;13.482;2023-08-17T01:45:33;14.40;99.90
46217;DHT22;47258;59.424;13.482;2023-08-17T01:48:04;14.30;99.90
46217;DHT22;47258;59.424;13.482;2023-08-17T01:50:35;14.30;99.90
46217;DHT22;47258;59.424;13.482;2023-08-17T01:53:09;14.40;99.90
46217;DHT22;47258;59.424;13.482;2023-08-17T01:55:41;14.40;99.90
46217;DHT22;47258;59.424;13.482;2023-08-17T01:58:10;14.40;99.90
46217;DHT22;47258;59.424;13.482;2023-08-17T02:00:41;14.40;99.90
46217;DHT22;47258;59.424;13.482;2023-08-17T02:03:09;14.40;99.90
46217;DHT22;47258;59.424;13.482;2023-08-17T02:05:44;14.50;99.90
46217;DHT22;47258;59.424;13.482;2023-08-17T02:08:12;14.40;99.90
46217;DHT22;47258;59.424;13.482;2023-08-17T02:10:46;14.40;99.90
46217;DHT22;47258;59.424;13.482;2023-08-17T02:13:16;14.50;99.90
46217;DHT22;47258;59.424;13.482;2023-08-17T02:15:44;14.50;99.90
46217;DHT22;47258;59.424;13.482;2023-08-17T02:18:16;14.60;99.90
46217;DHT22;47258;59.424;13.482;2023-08-17T02:20:45;14.60;99.90
46217;DHT22;47258;59.424;13.482;2023-08-17T02:23:13;14.60;99.90
46217;DHT22;47258;59.424;13.482;2023-08-17T02:25:43;14.60;99.90
46217;DHT22;47258;59.424;13.482;2023-08-17T02:28:15;14.60;99.90
46217;DHT22;47258;59.424;13.482;2023-08-17T02:30:45;14.60;99.90
46217;DHT22;47258;59.424;13.482;2023-08-17T02:33:15;14.60;99.90
46217;DHT22;47258;59.424;13.482;2023-08-17T02:35:49;14.60;99.90
46217;DHT22;47258;59.424;13.482;2023-08-17T02:38:17;14.60;99.90
46217;DHT22;47258;59.424;13.482;2023-08-17T02:40:46;14.60;99.90
46217;DHT22;47258;59.424;13.482;2023-08-17T02:43:18;14.60;99.90
46217;DHT22;47258;59.424;13.482;2023-08-17T02:45:52;14.60;99.90
46217;DHT22;47258;59.424;13.482;2023-08-17T02:48:20;14.70;99.90
46217;DHT22;47258;59.424;13.482;2023-08-17T02:50:49;14.70;99.90
46217;DHT22;47258;59.424;13.482;2023-08-17T02:53:22;14.70;99.90
46217;DHT22;47258;59.424;13.482;2023-08-17T02:55:50;14.70;99.90
46217;DHT22;47258;59.424;13.482;2023-08-17T02:58:20;14.70;99.90
46217;DHT22;47258;59.424;13.482;2023-08-17T03:00:51;14.70;99.90
46217;DHT22;47258;59.424;13.482;2023-08-17T03:03:20;14.70;99.90
46217;DHT22;47258;59.424;13.482;2023-08-17T03:05:51;14.70;99.90
46217;DHT22;47258;59.424;13.482;2023-08-17T03:08:20;14.70;99.90
46217;DHT22;47258;59.424;13.482;2023-08-17T03:10:49;14.70;99.90
46217;DHT22;47258;59.424;13.482;2023-08-17T03:13:23;14.70;99.90
46217;DHT22;47258;59.424;13.482;2023-08-17T03:15:56;14.70;99.90
46217;DHT22;47258;59.424;13.482;2023-08-17T03:18:24;14.70;99.90
46217;DHT22;47258;59.424;13.482;2023-08-17T03:20:53;14.70;99.90
46217;DHT22;47258;59.424;13.482;2023-08-17T03:23:24;14.70;99.90
46217;DHT22;47258;59.424;13.482;2023-08-17T03:25:52;14.70;99.90
46217;DHT22;47258;59.424;13.482;2023-08-17T03:28:29;14.70;99.90
46217;DHT22;47258;59.424;13.482;2023-08-17T03:31:00;14.70;99.90
46217;DHT22;47258;59.424;13.482;2023-08-17T03:33:29;14.70;99.90
46217;DHT22;47258;59.424;13.482;2023-08-17T03:36:02;14.80;99.90
46217;DHT22;47258;59.424;13.482;2023-08-17T03:38:30;14.80;99.90
46217;DHT22;47258;59.424;13.482;2023-08-17T03:41:00;14.80;99.90
46217;DHT22;47258;59.424;13.482;2023-08-17T03:43:33;14.90;99.90
46217;DHT22;47258;59.424;13.482;2023-08-17T03:46:06;14.90;99.90
46217;DHT22;47258;59.424;13.482;2023-08-17T03:48:38;14.90;99.90
46217;DHT22;47258;59.424;13.482;2023-08-17T03:51:08;14.90;99.90
46217;DHT22;47258;59.424;13.482;2023-08-17T03:53:42;14.90;99.90
46217;DHT22;47258;59.424;13.482;2023-08-17T03:56:14;14.90;99.90
46217;DHT22;47258;59.424;13.482;2023-08-17T03:58:48;14.80;99.90
46217;DHT22;47258;59.424;13.482;2023-08-17T04:01:21;14.80;99.90
46217;DHT22;47258;59.424;13.482;2023-08-17T04:03:53;14.80;99.90
46217;DHT22;47258;59.424;13.482;2023-08-17T04:06:23;14.80;99.90
46217;DHT22;47258;59.424;13.482;2023-08-17T04:08:55;14.80;99.90
46217;DHT22;47258;59.424;13.482;2023-08-17T04:11:23;14.80;99.90
46217;DHT22;47258;59.424;13.482;2023-08-17T04:13:56;14.80;99.90
46217;DHT22;47258;59.424;13.482;2023-08-17T04:16:25;14.90;99.90
46217;DHT22;47258;59.424;13.482;2023-08-17T04:18:54;14.90;99.90
46217;DHT22;47258;59.424;13.482;2023-08-17T04:21:26;15.00;99.90
46217;DHT22;47258;59.424;13.482;2023-08-17T04:23:58;15.00;99.90
46217;DHT22;47258;59.424;13.482;2023-08-17T04:26:30;15.00;99.90
46217;DHT22;47258;59.424;13.482;2023-08-17T04:29:01;15.10;99.90
46217;DHT22;47258;59.424;13.482;2023-08-17T04:31:32;15.10;99.90
46217;DHT22;47258;59.424;13.482;2023-08-17T04:34:00;15.20;99.90
46217;DHT22;47258;59.424;13.482;2023-08-17T04:36:34;15.20;99.90
46217;DHT22;47258;59.424;13.482;2023-08-17T04:39:03;15.20;99.90
46217;DHT22;47258;59.424;13.482;2023-08-17T04:41:32;15.20;99.90
46217;DHT22;47258;59.424;13.482;2023-08-17T04:44:03;15.30;99.90
46217;DHT22;47258;59.424;13.482;2023-08-17T04:46:32;15.30;99.90
46217;DHT22;47258;59.424;13.482;2023-08-17T04:49:00;15.30;99.90
46217;DHT22;47258;59.424;13.482;2023-08-17T04:51:29;15.40;99.90
46217;DHT22;47258;59.424;13.482;2023-08-17T04:54:01;15.40;99.90
46217;DHT22;47258;59.424;13.482;2023-08-17T04:56:32;15.40;99.90
46217;DHT22;47258;59.424;13.482;2023-08-17T04:59:03;15.40;99.90
46217;DHT22;47258;59.424;13.482;2023-08-17T05:01:34;15.40;99.90
46217;DHT22;47258;59.424;13.482;2023-08-17T05:04:05;15.50;99.90
46217;DHT22;47258;59.424;13.482;2023-08-17T05:06:39;15.50;99.90
46217;DHT22;47258;59.424;13.482;2023-08-17T05:09:13;15.60;99.90
46217;DHT22;47258;59.424;13.482;2023-08-17T05:11:46;15.60;99.90
46217;DHT22;47258;59.424;13.482;2023-08-17T05:14:16;15.60;99.90
46217;DHT22;47258;59.424;13.482;2023-08-17T05:16:45;15.70;99.90
46217;DHT22;47258;59.424;13.482;2023-08-17T05:19:14;15.70;99.90
46217;DHT22;47258;59.424;13.482;2023-08-17T05:21:44;15.70;99.90
46217;DHT22;47258;59.424;13.482;2023-08-17T05:24:19;15.80;99.90
46217;DHT22;47258;59.424;13.482;2023-08-17T05:26:55;15.80;99.90
46217;DHT22;47258;59.424;13.482;2023-08-17T05:29:29;15.90;99.90
46217;DHT22;47258;59.424;13.482;2023-08-17T05:31:58;15.90;99.90
46217;DHT22;47258;59.424;13.482;2023-08-17T05:34:27;15.90;99.90
46217;DHT22;47258;59.424;13.482;2023-08-17T05:36:57;16.00;99.90
46217;DHT22;47258;59.424;13.482;2023-08-17T05:39:25;16.00;99.90
46217;DHT22;47258;59.424;13.482;2023-08-17T05:41:56;16.00;99.90
46217;DHT22;47258;59.424;13.482;2023-08-17T05:44:27;16.00;99.90
46217;DHT22;47258;59.424;13.482;2023-08-17T05:46:57;16.10;99.90
46217;DHT22;47258;59.424;13.482;2023-08-17T05:49:30;16.10;99.90
46217;DHT22;47258;59.424;13.482;2023-08-17T05:52:07;16.20;99.90
46217;DHT22;47258;59.424;13.482;2023-08-17T05:54:41;16.30;99.90
46217;DHT22;47258;59.424;13.482;2023-08-17T05:57:14;16.30;99.90
46217;DHT22;47258;59.424;13.482;2023-08-17T05:59:47;16.40;99.90
46217;DHT22;47258;59.424;13.482;2023-08-17T06:02:16;16.50;99.90
46217;DHT22;47258;59.424;13.482;2023-08-17T06:04:48;16.60;99.90
46217;DHT22;47258;59.424;13.482;2023-08-17T06:07:17;16.70;99.90
46217;DHT22;47258;59.424;13.482;2023-08-17T06:09:48;16.70;99.90
46217;DHT22;47258;59.424;13.482;2023-08-17T06:12:18;16.90;99.90
46217;DHT22;47258;59.424;13.482;2023-08-17T06:14:51;16.90;99.90
46217;DHT22;47258;59.424;13.482;2023-08-17T06:17:23;17.00;99.90
46217;DHT22;47258;59.424;13.482;2023-08-17T06:19:55;16.90;99.90
46217;DHT22;47258;59.424;13.482;2023-08-17T06:22:27;17.00;99.90
46217;DHT22;47258;59.424;13.482;2023-08-17T06:25:00;17.00;99.90
46217;DHT22;47258;59.424;13.482;2023-08-17T06:27:30;17.10;99.90
46217;DHT22;47258;59.424;13.482;2023-08-17T06:30:02;17.20;99.90
46217;DHT22;47258;59.424;13.482;2023-08-17T06:32:35;17.20;99.90
46217;DHT22;47258;59.424;13.482;2023-08-17T06:35:05;17.30;99.90
46217;DHT22;47258;59.424;13.482;2023-08-17T06:37:38;17.40;99.90
46217;DHT22;47258;59.424;13.482;2023-08-17T06:40:07;17.30;99.90
46217;DHT22;47258;59.424;13.482;2023-08-17T06:42:35;17.40;99.90
46217;DHT22;47258;59.424;13.482;2023-08-17T06:45:05;17.40;99.90
46217;DHT22;47258;59.424;13.482;2023-08-17T06:47:33;17.40;99.90
46217;DHT22;47258;59.424;13.482;2023-08-17T06:50:04;17.40;99.90
46217;DHT22;47258;59.424;13.482;2023-08-17T06:52:35;17.40;99.90
46217;DHT22;47258;59.424;13.482;2023-08-17T06:55:04;17.40;99.90
46217;DHT22;47258;59.424;13.482;2023-08-17T06:57:34;17.40;99.90
46217;DHT22;47258;59.424;13.482;2023-08-17T07:00:06;17.40;99.90
46217;DHT22;47258;59.424;13.482;2023-08-17T07:02:37;17.40;99.90
46217;DHT22;47258;59.424;13.482;2023-08-17T07:05:08;17.50;99.90
46217;DHT22;47258;59.424;13.482;2023-08-17T07:07:38;17.50;99.90
46217;DHT22;47258;59.424;13.482;2023-08-17T07:10:09;17.50;99.90
46217;DHT22;47258;59.424;13.482;2023-08-17T07:12:44;17.60;99.90
46217;DHT22;47258;59.424;13.482;2023-08-17T07:15:17;17.50;99.90
46217;DHT22;47258;59.424;13.482;2023-08-17T07:17:46;17.60;99.90
46217;DHT22;47258;59.424;13.482;2023-08-17T07:20:17;17.60;99.90
46217;DHT22;47258;59.424;13.482;2023-08-17T07:22:48;17.70;99.90
46217;DHT22;47258;59.424;13.482;2023-08-17T07:25:18;17.70;99.90
46217;DHT22;47258;59.424;13.482;2023-08-17T07:27:50;17.80;99.90
46217;DHT22;47258;59.424;13.482;2023-08-17T07:30:28;17.80;99.90
46217;DHT22;47258;59.424;13.482;2023-08-17T07:32:56;17.90;99.90
46217;DHT22;47258;59.424;13.482;2023-08-17T07:35:29;17.90;99.90
46217;DHT22;47258;59.424;13.482;2023-08-17T07:37:59;18.00;99.90
46217;DHT22;47258;59.424;13.482;2023-08-17T07:40:26;18.00;99.90
46217;DHT22;47258;59.424;13.482;2023-08-17T07:42:56;18.10;99.90
46217;DHT22;47258;59.424;13.482;2023-08-17T07:45:31;18.10;99.90
46217;DHT22;47258;59.424;13.482;2023-08-17T07:48:01;18.20;99.90
46217;DHT22;47258;59.424;13.482;2023-08-17T07:50:32;18.20;99.90
46217;DHT22;47258;59.424;13.482;2023-08-17T07:53:03;18.30;99.90
46217;DHT22;47258;59.424;13.482;2023-08-17T07:55:36;18.30;99.90
46217;DHT22;47258;59.424;13.482;2023-08-17T07:58:04;18.40;99.90
46217;DHT22;47258;59.424;13.482;2023-08-17T08:00:35;18.40;99.90
46217;DHT22;47258;59.424;13.482;2023-08-17T08:03:05;18.50;99.90
46217;DHT22;47258;59.424;13.482;2023-08-17T08:05:37;18.50;99.90
46217;DHT22;47258;59.424;13.482;2023-08-17T08:08:11;18.60;99.90
46217;DHT22;47258;59.424;13.482;2023-08-17T08:10:43;18.60;99.90
46217;DHT22;47258;59.424;13.482;2023-08-17T08:13:13;18.60;99.90
46217;DHT22;47258;59.424;13.482;2023-08-17T08:15:45;18.70;99.90
46217;DHT22;47258;59.424;13.482;2023-08-17T08:18:14;18.70;99.90
46217;DHT22;47258;59.424;13.482;2023-08-17T08:20:48;18.80;99.90
46217;DHT22;47258;59.424;13.482;2023-08-17T08:23:17;18.80;99.90
46217;DHT22;47258;59.424;13.482;2023-08-17T08:25:45;18.80;99.90
46217;DHT22;47258;59.424;13.482;2023-08-17T08:28:16;18.90;99.90
46217;DHT22;47258;59.424;13.482;2023-08-17T08:30:46;18.90;99.90
46217;DHT22;47258;59.424;13.482;2023-08-17T08:33:19;19.00;99.90
46217;DHT22;47258;59.424;13.482;2023-08-17T08:35:52;19.00;99.90
46217;DHT22;47258;59.424;13.482;2023-08-17T08:38:25;19.00;99.90
46217;DHT22;47258;59.424;13.482;2023-08-17T08:40:54;19.10;99.90
46217;DHT22;47258;59.424;13.482;2023-08-17T08:43:23;19.10;99.90
46217;DHT22;47258;59.424;13.482;2023-08-17T08:45:55;19.10;99.90
46217;DHT22;47258;59.424;13.482;2023-08-17T08:48:27;19.20;99.90
46217;DHT22;47258;59.424;13.482;2023-08-17T08:50:55;19.30;99.90
46217;DHT22;47258;59.424;13.482;2023-08-17T08:53:31;19.30;99.90
46217;DHT22;47258;59.424;13.482;2023-08-17T08:56:01;19.30;99.90
46217;DHT22;47258;59.424;13.482;2023-08-17T08:58:31;19.30;99.90
46217;DHT22;47258;59.424;13.482;2023-08-17T09:01:04;19.40;99.90
46217;DHT22;47258;59.424;13.482;2023-08-17T09:03:33;19.50;99.90
46217;DHT22;47258;59.424;13.482;2023-08-17T09:06:03;19.50;99.90
46217;DHT22;47258;59.424;13.482;2023-08-17T09:08:31;19.60;99.90
46217;DHT22;47258;59.424;13.482;2023-08-17T09:10:58;19.80;99.90
46217;DHT22;47258;59.424;13.482;2023-08-17T09:13:26;19.80;99.90
46217;DHT22;47258;59.424;13.482;2023-08-17T09:15:54;19.90;99.90
46217;DHT22;47258;59.424;13.482;2023-08-17T09:18:28;20.00;99.90
46217;DHT22;47258;59.424;13.482;2023-08-17T09:20:56;20.10;99.90
46217;DHT22;47258;59.424;13.482;2023-08-17T09:23:24;20.20;99.90
46217;DHT22;47258;59.424;13.482;2023-08-17T09:25:53;20.20;99.90
46217;DHT22;47258;59.424;13.482;2023-08-17T09:28:25;20.40;99.90
46217;DHT22;47258;59.424;13.482;2023-08-17T09:30:54;20.60;99.90
46217;DHT22;47258;59.424;13.482;2023-08-17T09:33:23;20.70;99.90
46217;DHT22;47258;59.424;13.482;2023-08-17T09:35:57;20.90;99.90
46217;DHT22;47258;59.424;13.482;2023-08-17T09:38:53;21.00;99.90
46217;DHT22;47258;59.424;13.482;2023-08-17T09:42:20;21.30;99.90
46217;DHT22;47258;59.424;13.482;2023-08-17T09:45:33;21.50;99.90
46217;DHT22;47258;59.424;13.482;2023-08-17T09:48:23;21.60;99.90
46217;DHT22;47258;59.424;13.482;2023-08-17T09:51:29;21.80;99.90
46217;DHT22;47258;59.424;13.482;2023-08-17T09:54:25;22.20;99.90
46217;DHT22;47258;59.424;13.482;2023-08-17T09:57:17;22.30;99.90
46217;DHT22;47258;59.424;13.482;2023-08-17T10:00:00;22.20;99.90
46217;DHT22;47258;59.424;13.482;2023-08-17T10:02:38;22.20;99.90
46217;DHT22;47258;59.424;13.482;2023-08-17T10:05:16;22.20;99.90
46217;DHT22;47258;59.424;13.482;2023-08-17T10:08:03;22.50;99.90
46217;DHT22;47258;59.424;13.482;2023-08-17T10:10:48;22.90;99.90
46217;DHT22;47258;59.424;13.482;2023-08-17T10:13:38;23.20;99.90
46217;DHT22;47258;59.424;13.482;2023-08-17T10:16:23;23.20;99.90
46217;DHT22;47258;59.424;13.482;2023-08-17T10:19:04;23.20;99.90
46217;DHT22;47258;59.424;13.482;2023-08-17T10:22:03;23.20;99.90
46217;DHT22;47258;59.424;13.482;2023-08-17T10:24:48;23.40;99.90
46217;DHT22;47258;59.424;13.482;2023-08-17T10:27:39;23.40;99.90
46217;DHT22;47258;59.424;13.482;2023-08-17T10:30:29;23.30;99.90
46217;DHT22;47258;59.424;13.482;2023-08-17T10:33:16;23.20;99.90
46217;DHT22;47258;59.424;13.482;2023-08-17T10:35:57;23.40;99.90
46217;DHT22;47258;59.424;13.482;2023-08-17T10:38:37;23.40;99.90
46217;DHT22;47258;59.424;13.482;2023-08-17T10:41:48;23.50;99.90
46217;DHT22;47258;59.424;13.482;2023-08-17T10:44:57;23.50;99.90
46217;DHT22;47258;59.424;13.482;2023-08-17T10:47:54;23.80;99.90
46217;DHT22;47258;59.424;13.482;2023-08-17T10:50:58;23.90;99.90
46217;DHT22;47258;59.424;13.482;2023-08-17T10:53:44;23.90;99.90
46217;DHT22;47258;59.424;13.482;2023-08-17T10:56:50;23.90;99.90
46217;DHT22;47258;59.424;13.482;2023-08-17T10:59:50;24.20;99.90
46217;DHT22;47258;59.424;13.482;2023-08-17T11:03:07;24.40;99.90
46217;DHT22;47258;59.424;13.482;2023-08-17T11:05:41;24.60;99.90
46217;DHT22;47258;59.424;13.482;2023-08-17T11:08:11;25.80;99.90
46217;DHT22;47258;59.424;13.482;2023-08-17T11:10:46;27.50;99.90
46217;DHT22;47258;59.424;13.482;2023-08-17T11:13:16;28.90;99.90
46217;DHT22;47258;59.424;13.482;2023-08-17T11:15:45;30.00;99.90
46217;DHT22;47258;59.424;13.482;2023-08-17T11:18:16;30.80;99.60
46217;DHT22;47258;59.424;13.482;2023-08-17T11:20:44;31.40;95.60
46217;DHT22;47258;59.424;13.482;2023-08-17T11:23:12;31.00;93.80
46217;DHT22;47258;59.424;13.482;2023-08-17T11:25:44;30.40;94.00
46217;DHT22;47258;59.424;13.482;2023-08-17T11:28:14;30.90;93.60
46217;DHT22;47258;59.424;13.482;2023-08-17T11:30:44;31.00;93.10
46217;DHT22;47258;59.424;13.482;2023-08-17T11:33:14;30.70;92.40
46217;DHT22;47258;59.424;13.482;2023-08-17T11:35:42;29.40;94.10
46217;DHT22;47258;59.424;13.482;2023-08-17T11:38:12;28.70;95.00
46217;DHT22;47258;59.424;13.482;2023-08-17T11:40:42;28.10;94.40
46217;DHT22;47258;59.424;13.482;2023-08-17T11:43:10;27.70;95.30
46217;DHT22;47258;59.424;13.482;2023-08-17T11:45:39;27.30;96.50
46217;DHT22;47258;59.424;13.482;2023-08-17T11:48:10;27.10;97.10
46217;DHT22;47258;59.424;13.482;2023-08-17T11:50:40;26.90;97.40
46217;DHT22;47258;59.424;13.482;2023-08-17T11:53:12;26.70;99.20
46217;DHT22;47258;59.424;13.482;2023-08-17T11:55:41;26.50;98.70
46217;DHT22;47258;59.424;13.482;2023-08-17T11:58:09;26.10;97.70
46217;DHT22;47258;59.424;13.482;2023-08-17T12:00:45;26.00;99.40
46217;DHT22;47258;59.424;13.482;2023-08-17T12:03:18;25.80;99.20
46217;DHT22;47258;59.424;13.482;2023-08-17T12:05:46;25.60;99.90
46217;DHT22;47258;59.424;13.482;2023-08-17T12:08:16;25.50;99.90
46217;DHT22;47258;59.424;13.482;2023-08-17T12:10:47;25.40;99.90
46217;DHT22;47258;59.424;13.482;2023-08-17T12:13:15;25.30;99.90
46217;DHT22;47258;59.424;13.482;2023-08-17T12:15:44;25.00;99.90
46217;DHT22;47258;59.424;13.482;2023-08-17T12:18:12;24.70;99.90
46217;DHT22;47258;59.424;13.482;2023-08-17T12:20:54;24.30;99.90
46217;DHT22;47258;59.424;13.482;2023-08-17T12:23:28;23.90;99.90
46217;DHT22;47258;59.424;13.482;2023-08-17T12:25:57;23.70;99.90
46217;DHT22;47258;59.424;13.482;2023-08-17T12:28:29;23.70;99.90
46217;DHT22;47258;59.424;13.482;2023-08-17T12:31:00;23.70;99.90
46217;DHT22;47258;59.424;13.482;2023-08-17T12:33:31;23.80;99.90
46217;DHT22;47258;59.424;13.482;2023-08-17T12:36:01;23.90;99.90
46217;DHT22;47258;59.424;13.482;2023-08-17T12:38:31;24.00;99.90
46217;DHT22;47258;59.424;13.482;2023-08-17T12:41:00;23.90;99.90
46217;DHT22;47258;59.424;13.482;2023-08-17T12:43:30;23.80;99.90
46217;DHT22;47258;59.424;13.482;2023-08-17T12:46:00;23.70;99.90
46217;DHT22;47258;59.424;13.482;2023-08-17T12:48:30;23.70;99.90
46217;DHT22;47258;59.424;13.482;2023-08-17T12:51:06;23.90;99.90
46217;DHT22;47258;59.424;13.482;2023-08-17T12:53:34;24.10;99.90
46217;DHT22;47258;59.424;13.482;2023-08-17T12:56:04;24.20;99.90
46217;DHT22;47258;59.424;13.482;2023-08-17T12:58:36;24.20;99.90
46217;DHT22;47258;59.424;13.482;2023-08-17T13:01:06;24.20;99.90
46217;DHT22;47258;59.424;13.482;2023-08-17T13:03:34;24.40;99.90
46217;DHT22;47258;59.424;13.482;2023-08-17T13:06:10;24.40;99.90
46217;DHT22;47258;59.424;13.482;2023-08-17T13:08:39;24.40;99.90
46217;DHT22;47258;59.424;13.482;2023-08-17T13:11:07;24.40;99.90
46217;DHT22;47258;59.424;13.482;2023-08-17T13:13:35;24.40;99.90
46217;DHT22;47258;59.424;13.482;2023-08-17T13:16:04;24.30;99.90
46217;DHT22;47258;59.424;13.482;2023-08-17T13:18:34;24.10;99.90
46217;DHT22;47258;59.424;13.482;2023-08-17T13:21:02;23.90;99.90
46217;DHT22;47258;59.424;13.482;2023-08-17T13:23:34;24.00;99.90
46217;DHT22;47258;59.424;13.482;2023-08-17T13:26:02;24.00;99.90
46217;DHT22;47258;59.424;13.482;2023-08-17T13:28:30;24.00;99.90
46217;DHT22;47258;59.424;13.482;2023-08-17T13:30:58;24.00;99.90
46217;DHT22;47258;59.424;13.482;2023-08-17T13:33:27;24.10;99.90
46217;DHT22;47258;59.424;13.482;2023-08-17T13:36:01;24.00;99.90
46217;DHT22;47258;59.424;13.482;2023-08-17T13:38:35;24.00;99.90
46217;DHT22;47258;59.424;13.482;2023-08-17T13:41:06;24.20;99.90
46217;DHT22;47258;59.424;13.482;2023-08-17T13:43:40;24.30;99.90
46217;DHT22;47258;59.424;13.482;2023-08-17T13:46:12;24.40;99.90
46217;DHT22;47258;59.424;13.482;2023-08-17T13:48:40;24.40;99.90
46217;DHT22;47258;59.424;13.482;2023-08-17T13:51:09;24.40;99.90
46217;DHT22;47258;59.424;13.482;2023-08-17T13:53:44;24.50;99.90
46217;DHT22;47258;59.424;13.482;2023-08-17T13:56:17;24.60;99.90
46217;DHT22;47258;59.424;13.482;2023-08-17T13:58:46;24.70;99.90
46217;DHT22;47258;59.424;13.482;2023-08-17T14:01:14;24.90;99.90
46217;DHT22;47258;59.424;13.482;2023-08-17T14:03:43;24.80;99.90
46217;DHT22;47258;59.424;13.482;2023-08-17T14:06:13;24.70;99.90
46217;DHT22;47258;59.424;13.482;2023-08-17T14:08:46;24.70;99.90
46217;DHT22;47258;59.424;13.482;2023-08-17T14:11:15;24.70;99.90
46217;DHT22;47258;59.424;13.482;2023-08-17T14:13:43;24.90;99.90
46217;DHT22;47258;59.424;13.482;2023-08-17T14:16:13;25.10;99.90
46217;DHT22;47258;59.424;13.482;2023-08-17T14:18:43;25.00;99.90
46217;DHT22;47258;59.424;13.482;2023-08-17T14:21:11;25.30;99.90
46217;DHT22;47258;59.424;13.482;2023-08-17T14:23:40;25.40;99.90
46217;DHT22;47258;59.424;13.482;2023-08-17T14:26:12;25.60;99.90
46217;DHT22;47258;59.424;13.482;2023-08-17T14:28:42;25.70;99.90
46217;DHT22;47258;59.424;13.482;2023-08-17T14:31:11;25.70;99.90
46217;DHT22;47258;59.424;13.482;2023-08-17T14:33:46;25.40;99.90
46217;DHT22;47258;59.424;13.482;2023-08-17T14:36:21;25.20;99.90
46217;DHT22;47258;59.424;13.482;2023-08-17T14:38:53;25.00;99.90
46217;DHT22;47258;59.424;13.482;2023-08-17T14:41:27;24.80;99.90
46217;DHT22;47258;59.424;13.482;2023-08-17T14:43:58;24.70;99.90
46217;DHT22;47258;59.424;13.482;2023-08-17T14:46:30;24.50;99.90
46217;DHT22;47258;59.424;13.482;2023-08-17T14:48:59;24.30;99.90
46217;DHT22;47258;59.424;13.482;2023-08-17T14:51:31;24.20;99.90
46217;DHT22;47258;59.424;13.482;2023-08-17T14:54:05;24.10;99.90
46217;DHT22;47258;59.424;13.482;2023-08-17T14:56:39;24.00;99.90
46217;DHT22;47258;59.424;13.482;2023-08-17T14:59:07;23.80;99.90
46217;DHT22;47258;59.424;13.482;2023-08-17T15:01:36;23.70;99.90
46217;DHT22;47258;59.424;13.482;2023-08-17T15:04:05;23.90;99.90
46217;DHT22;47258;59.424;13.482;2023-08-17T15:06:36;24.10;99.90
46217;DHT22;47258;59.424;13.482;2023-08-17T15:09:09;24.20;99.90
46217;DHT22;47258;59.424;13.482;2023-08-17T15:11:38;24.40;99.90
46217;DHT22;47258;59.424;13.482;2023-08-17T15:14:07;24.70;99.90
46217;DHT22;47258;59.424;13.482;2023-08-17T15:16:35;24.90;99.90
46217;DHT22;47258;59.424;13.482;2023-08-17T15:19:04;25.10;99.90
46217;DHT22;47258;59.424;13.482;2023-08-17T15:21:34;25.30;99.90
46217;DHT22;47258;59.424;13.482;2023-08-17T15:24:05;25.50;99.90
46217;DHT22;47258;59.424;13.482;2023-08-17T15:26:33;25.60;99.90
46217;DHT22;47258;59.424;13.482;2023-08-17T15:29:06;25.70;99.90
46217;DHT22;47258;59.424;13.482;2023-08-17T15:31:35;25.80;99.90
46217;DHT22;47258;59.424;13.482;2023-08-17T15:34:05;25.80;99.90
46217;DHT22;47258;59.424;13.482;2023-08-17T15:36:35;25.70;99.90
46217;DHT22;47258;59.424;13.482;2023-08-17T15:39:05;25.70;99.90
46217;DHT22;47258;59.424;13.482;2023-08-17T15:41:35;25.60;99.90
46217;DHT22;47258;59.424;13.482;2023-08-17T15:44:12;25.50;99.90
46217;DHT22;47258;59.424;13.482;2023-08-17T15:46:41;25.50;99.90
46217;DHT22;47258;59.424;13.482;2023-08-17T15:49:12;25.40;99.90